createdAt,value
2022-10-18T00:01:11.998Z,73.69
2022-10-18T00:03:39.757Z,73.67
2022-10-18T00:06:09.357Z,73.74
2022-10-18T00:08:38.715Z,73.85
2022-10-18T00:11:07.533Z,73.67
2022-10-18T00:13:35.045Z,73.58
2022-10-18T00:16:04.450Z,73.68
2022-10-18T00:18:32.359Z,73.55
2022-10-18T00:21:20.574Z,73.91
2022-10-18T00:23:49.506Z,73.43
2022-10-18T00:26:23.249Z,73.61
2022-10-18T00:28:57.076Z,73.43
2022-10-18T00:31:24.542Z,73.03
2022-10-18T00:33:54.898Z,73.10
2022-10-18T00:36:23.066Z,73.20
2022-10-18T00:38:51.059Z,72.78
2022-10-18T00:41:24.792Z,72.53
2022-10-18T00:44:00.404Z,72.25
2022-10-18T00:46:33.569Z,72.35
2022-10-18T00:49:05.486Z,72.21
2022-10-18T00:51:41.603Z,72.26
2022-10-18T00:54:09.087Z,71.96
2022-10-18T00:56:36.899Z,71.80
2022-10-18T00:59:04.648Z,71.67
2022-10-18T01:01:32.155Z,71.79
2022-10-18T01:03:59.973Z,71.89
2022-10-18T01:06:28.981Z,71.98
2022-10-18T01:09:37.943Z,72.12
2022-10-18T01:12:20.810Z,72.18
2022-10-18T01:15:10.744Z,72.00
2022-10-18T01:17:52.324Z,72.07
2022-10-18T01:20:41.092Z,72.20
2022-10-18T01:23:23.807Z,72.33
2022-10-18T01:26:06.599Z,72.18
2022-10-18T01:28:58.704Z,72.53
2022-10-18T01:31:35.125Z,72.35
2022-10-18T01:34:08.484Z,72.13
2022-10-18T01:36:49.790Z,72.37
2022-10-18T01:39:22.823Z,72.13
2022-10-18T01:41:53.420Z,72.02
2022-10-18T01:44:27.207Z,72.08
2022-10-18T01:46:57.234Z,72.12
2022-10-18T01:49:26.166Z,71.84
2022-10-18T01:51:54.060Z,71.86
2022-10-18T01:54:33.117Z,71.96
2022-10-18T01:57:36.901Z,72.16
2022-10-18T02:00:10.525Z,71.93
2022-10-18T02:02:57.122Z,71.98
2022-10-18T02:05:48.284Z,72.06
2022-10-18T02:08:34.695Z,72.07
2022-10-18T02:11:08.421Z,71.99
2022-10-18T02:13:41.610Z,71.82
2022-10-18T02:16:36.260Z,72.11
2022-10-18T02:19:44.004Z,72.09
2022-10-18T02:22:13.519Z,71.50
2022-10-18T02:24:54.289Z,71.54
2022-10-18T02:27:22.422Z,71.06
2022-10-18T02:29:50.205Z,71.11
2022-10-18T02:32:32.374Z,71.37
2022-10-18T02:35:09.072Z,71.74
2022-10-18T02:37:40.514Z,71.51
2022-10-18T02:40:10.285Z,71.56
2022-10-18T02:42:59.463Z,71.53
2022-10-18T02:45:27.501Z,71.14
2022-10-18T02:47:55.010Z,71.32
2022-10-18T02:50:22.442Z,71.18
2022-10-18T02:52:49.900Z,71.39
2022-10-18T02:55:17.407Z,71.36
2022-10-18T02:57:44.976Z,71.20
2022-10-18T03:00:13.050Z,71.01
2022-10-18T03:02:40.529Z,70.94
2022-10-18T03:05:08.292Z,70.71
2022-10-18T03:07:35.859Z,71.01
2022-10-18T03:10:03.566Z,71.07
2022-10-18T03:12:31.077Z,71.27
2022-10-18T03:14:58.451Z,71.07
2022-10-18T03:17:26.087Z,71.00
2022-10-18T03:19:53.526Z,71.18
2022-10-18T03:22:21.043Z,70.96
2022-10-18T03:24:48.509Z,70.89
2022-10-18T03:27:15.998Z,70.80
2022-10-18T03:29:43.393Z,70.90
2022-10-18T03:32:10.895Z,70.80
2022-10-18T03:34:38.392Z,70.85
2022-10-18T03:37:05.899Z,70.90
2022-10-18T03:39:33.306Z,70.77
2022-10-18T03:42:00.780Z,70.87
2022-10-18T03:44:28.177Z,70.82
2022-10-18T03:46:55.648Z,71.05
2022-10-18T03:49:23.094Z,70.94
2022-10-18T03:51:50.548Z,71.24
2022-10-18T03:54:21.228Z,71.38
2022-10-18T03:56:48.697Z,71.16
2022-10-18T03:59:17.190Z,70.98
2022-10-18T04:01:44.599Z,71.06
2022-10-18T04:04:12.130Z,71.36
2022-10-18T04:06:39.598Z,71.25
2022-10-18T04:09:09.474Z,71.78
2022-10-18T04:11:37.939Z,71.29
2022-10-18T04:14:07.654Z,71.27
2022-10-18T04:19:03.804Z,70.96
2022-10-18T04:21:31.292Z,71.30
2022-10-18T04:23:58.658Z,71.25
2022-10-18T04:26:26.246Z,71.75
2022-10-18T04:28:56.061Z,71.66
2022-10-18T04:31:23.637Z,71.54
2022-10-18T04:33:51.054Z,71.48
2022-10-18T04:36:18.581Z,71.34
2022-10-18T04:38:46.003Z,71.16
2022-10-18T04:41:13.506Z,71.51
2022-10-18T04:43:40.932Z,71.59
2022-10-18T04:46:08.614Z,71.92
2022-10-18T04:48:36.027Z,71.75
2022-10-18T04:51:03.639Z,71.32
2022-10-18T04:53:31.367Z,71.06
2022-10-18T04:55:58.964Z,71.34
2022-10-18T04:58:26.646Z,71.34
2022-10-18T05:00:54.411Z,71.54
2022-10-18T05:03:21.932Z,71.48
2022-10-18T05:06:01.431Z,71.41
2022-10-18T05:08:30.597Z,70.93
2022-10-18T05:10:58.279Z,70.67
2022-10-18T05:13:26.098Z,70.60
2022-10-18T05:15:53.610Z,70.85
2022-10-18T05:18:21.047Z,70.67
2022-10-18T05:20:48.571Z,70.80
2022-10-18T05:23:15.964Z,70.92
2022-10-18T05:25:44.158Z,71.15
2022-10-18T05:28:34.571Z,70.75
2022-10-18T05:31:03.470Z,70.97
2022-10-18T05:33:31.838Z,70.86
2022-10-18T05:35:59.785Z,70.65
2022-10-18T05:38:27.358Z,70.28
2022-10-18T05:40:54.895Z,70.62
2022-10-18T05:43:24.623Z,70.76
2022-10-18T05:45:52.092Z,70.86
2022-10-18T05:48:19.546Z,71.21
2022-10-18T05:50:50.011Z,70.82
2022-10-18T05:53:37.461Z,71.37
2022-10-18T05:56:06.511Z,71.49
2022-10-18T05:58:34.382Z,71.53
2022-10-18T06:01:32.956Z,71.87
2022-10-18T06:13:33.954Z,71.11
2022-10-18T06:33:50.603Z,71.69
2022-10-18T06:36:27.685Z,71.68
2022-10-18T06:40:08.911Z,72.00
2022-10-18T06:43:26.473Z,72.11
2022-10-18T06:47:10.397Z,72.91
2022-10-18T06:50:14.722Z,72.84
2022-10-18T06:52:45.041Z,73.06
2022-10-18T06:55:12.498Z,73.35
2022-10-18T06:57:39.874Z,73.61
2022-10-18T07:00:08.195Z,73.44
2022-10-18T07:02:35.756Z,73.30
2022-10-18T07:05:03.529Z,73.78
2022-10-18T07:07:31.880Z,74.06
2022-10-18T07:09:59.745Z,73.86
2022-10-18T07:12:27.173Z,73.77
2022-10-18T07:14:55.297Z,74.03
2022-10-18T07:17:22.865Z,73.93
2022-10-18T07:19:50.340Z,73.85
2022-10-18T07:22:17.845Z,73.46
2022-10-18T07:24:45.283Z,73.61
2022-10-18T07:27:12.808Z,73.71
2022-10-18T07:29:41.019Z,73.80
2022-10-18T07:32:08.531Z,74.11
2022-10-18T07:34:36.056Z,73.75
2022-10-18T07:37:03.756Z,73.98
2022-10-18T07:39:31.171Z,74.40
2022-10-18T07:41:58.732Z,74.59
2022-10-18T07:44:26.188Z,74.60
2022-10-18T07:46:53.884Z,74.85
2022-10-18T07:49:21.392Z,74.97
2022-10-18T07:51:48.867Z,75.31
2022-10-18T07:54:16.443Z,75.46
2022-10-18T07:56:43.852Z,75.44
2022-10-18T07:59:11.706Z,75.84
2022-10-18T08:01:46.759Z,75.73
2022-10-18T08:04:16.572Z,75.82
2022-10-18T08:06:44.154Z,75.41
2022-10-18T08:09:11.547Z,75.56
2022-10-18T08:11:39.249Z,75.53
2022-10-18T08:14:06.662Z,75.86
2022-10-18T08:16:34.177Z,75.95
2022-10-18T08:19:01.663Z,75.96
2022-10-18T08:21:29.122Z,76.00
2022-10-18T08:23:56.591Z,75.90
2022-10-18T08:26:24.541Z,76.39
2022-10-18T08:28:54.269Z,76.54
2022-10-18T08:31:26.035Z,77.03
2022-10-18T08:33:57.199Z,77.32
2022-10-18T08:36:25.197Z,77.69
2022-10-18T08:38:52.674Z,77.52
2022-10-18T08:41:28.809Z,78.19
2022-10-18T08:44:23.382Z,79.23
2022-10-18T08:47:00.132Z,78.95
2022-10-18T08:49:44.170Z,79.33
2022-10-18T08:52:35.217Z,79.77
2022-10-18T08:55:11.447Z,79.95
2022-10-18T08:57:40.193Z,79.46
2022-10-18T09:00:25.830Z,79.84
2022-10-18T09:03:24.325Z,80.60
2022-10-18T09:05:56.415Z,80.34
2022-10-18T09:08:42.533Z,80.13
2022-10-18T09:11:27.595Z,79.39
2022-10-18T09:14:29.068Z,79.69
2022-10-18T09:17:06.045Z,78.88
2022-10-18T09:19:55.912Z,80.38
2022-10-18T09:22:50.078Z,80.21
2022-10-18T09:25:22.543Z,79.32
2022-10-18T09:27:54.753Z,79.55
2022-10-18T09:30:41.409Z,79.55
2022-10-18T09:33:24.423Z,80.00
2022-10-18T09:36:05.051Z,79.86
2022-10-18T09:38:40.921Z,79.94
2022-10-18T09:41:32.287Z,81.08
2022-10-18T09:44:13.160Z,79.98
2022-10-18T09:46:46.682Z,80.10
2022-10-18T09:49:19.304Z,80.04
2022-10-18T09:51:50.307Z,79.75
2022-10-18T09:54:32.544Z,79.36
2022-10-18T09:57:32.607Z,80.50
2022-10-18T10:00:03.772Z,79.71
2022-10-18T10:02:32.665Z,79.43
2022-10-18T10:05:00.208Z,79.66
2022-10-18T10:07:35.497Z,79.89
2022-10-18T10:10:29.359Z,80.73
2022-10-18T10:13:27.912Z,80.70
2022-10-18T10:15:57.228Z,80.86
2022-10-18T10:18:54.406Z,80.79
2022-10-18T10:21:22.422Z,79.44
2022-10-18T10:23:57.088Z,80.31
2022-10-18T10:26:38.984Z,80.71
2022-10-18T10:29:45.158Z,80.81
2022-10-18T10:32:18.827Z,79.76
2022-10-18T10:34:46.582Z,79.85
2022-10-18T10:37:37.825Z,81.20
2022-10-18T10:40:20.478Z,80.63
2022-10-18T10:43:00.014Z,81.11
2022-10-18T10:45:58.062Z,81.07
2022-10-18T10:48:31.018Z,80.43
2022-10-18T10:51:04.414Z,80.72
2022-10-18T10:53:46.248Z,81.83
2022-10-18T10:56:27.535Z,81.35
2022-10-18T10:58:58.542Z,81.40
2022-10-18T11:01:32.772Z,81.93
2022-10-18T11:04:27.335Z,83.27
2022-10-18T11:07:22.589Z,82.22
2022-10-18T11:10:01.946Z,82.56
2022-10-18T11:12:33.531Z,81.66
2022-10-18T11:15:10.646Z,82.34
2022-10-18T11:17:45.324Z,82.40
2022-10-18T11:20:22.115Z,81.77
2022-10-18T11:23:00.948Z,82.47
2022-10-18T11:26:03.435Z,82.89
2022-10-18T11:28:57.709Z,82.57
2022-10-18T11:31:35.907Z,82.71
2022-10-18T11:34:31.608Z,83.14
2022-10-18T11:37:27.085Z,82.51
2022-10-18T11:40:13.742Z,82.43
2022-10-18T11:43:13.216Z,83.12
2022-10-18T11:46:22.163Z,83.19
2022-10-18T11:48:49.625Z,82.55
2022-10-18T11:51:34.066Z,82.87
2022-10-18T11:54:24.887Z,83.12
2022-10-18T11:57:18.226Z,83.08
2022-10-18T11:59:48.607Z,82.39
2022-10-18T12:02:37.183Z,82.97
2022-10-18T12:08:02.832Z,83.06
2022-10-18T12:10:52.792Z,82.60
2022-10-18T12:13:57.793Z,83.02
2022-10-18T12:16:50.354Z,82.51
2022-10-18T12:19:26.432Z,82.54
2022-10-18T12:22:21.945Z,83.15
2022-10-18T12:24:49.448Z,82.54
2022-10-18T12:27:17.670Z,82.75
2022-10-18T12:29:46.677Z,82.66
2022-10-18T12:32:22.729Z,82.99
2022-10-18T12:34:52.651Z,82.76
2022-10-18T12:37:35.559Z,83.46
2022-10-18T12:40:14.385Z,83.11
2022-10-18T12:42:47.119Z,83.20
2022-10-18T12:45:27.974Z,83.04
2022-10-18T12:47:59.980Z,83.51
2022-10-18T12:50:27.408Z,82.93
2022-10-18T12:53:25.487Z,83.92
2022-10-18T12:55:54.059Z,83.05
2022-10-18T12:58:21.935Z,83.06
2022-10-18T13:00:49.380Z,82.96
2022-10-18T13:03:17.429Z,83.27
2022-10-18T13:05:56.077Z,83.59
2022-10-18T13:08:38.095Z,83.91
2022-10-18T13:11:08.276Z,83.66
2022-10-18T13:14:06.910Z,84.15
2022-10-18T13:16:56.351Z,83.92
2022-10-18T13:20:07.668Z,84.16
2022-10-18T13:22:56.538Z,83.84
2022-10-18T13:25:49.870Z,83.09
2022-10-18T13:28:36.157Z,84.01
2022-10-18T13:31:27.264Z,83.72
2022-10-18T13:33:54.770Z,83.06
2022-10-18T13:36:25.273Z,83.30
2022-10-18T13:38:58.281Z,83.05
2022-10-18T13:41:34.255Z,83.11
2022-10-18T13:44:23.965Z,82.98
2022-10-18T13:46:51.642Z,82.51
2022-10-18T13:49:43.998Z,82.80
2022-10-18T13:52:17.198Z,82.27
2022-10-18T13:54:44.726Z,82.13
2022-10-18T13:57:41.235Z,82.27
2022-10-18T14:00:17.596Z,81.72
2022-10-18T14:03:44.084Z,81.89
2022-10-18T14:06:25.470Z,81.50
2022-10-18T14:09:06.189Z,81.08
2022-10-18T14:11:47.543Z,81.21
2022-10-18T14:14:43.600Z,81.20
2022-10-18T14:17:15.415Z,80.83
2022-10-18T14:19:53.947Z,81.06
2022-10-18T14:22:25.371Z,80.77
2022-10-18T14:24:58.331Z,80.94
2022-10-18T14:27:34.434Z,80.68
2022-10-18T14:30:15.626Z,80.62
2022-10-18T14:32:48.828Z,80.70
2022-10-18T14:35:32.510Z,80.65
2022-10-18T14:38:02.540Z,80.18
2022-10-18T14:40:31.706Z,80.10
2022-10-18T14:43:04.049Z,80.26
2022-10-18T14:45:31.648Z,80.06
2022-10-18T14:48:25.297Z,79.84
2022-10-18T14:51:00.586Z,79.79
2022-10-18T14:53:36.052Z,79.67
2022-10-18T14:56:07.473Z,79.40
2022-10-18T14:58:41.648Z,78.99
2022-10-18T15:01:20.065Z,78.78
2022-10-18T15:03:48.471Z,78.54
2022-10-18T15:06:19.962Z,78.38
2022-10-18T15:08:54.549Z,78.28
2022-10-18T15:11:25.670Z,78.38
2022-10-18T15:13:58.042Z,78.05
2022-10-18T15:16:28.346Z,77.99
2022-10-18T15:19:07.212Z,77.75
2022-10-18T15:21:36.187Z,77.56
2022-10-18T15:24:34.706Z,77.12
2022-10-18T15:27:29.882Z,76.84
2022-10-18T15:30:33.022Z,76.30
2022-10-18T15:33:27.522Z,76.18
2022-10-18T15:39:31.297Z,75.88
2022-10-18T15:42:01.553Z,75.84
2022-10-18T15:44:48.513Z,75.40
2022-10-18T15:47:23.068Z,75.35
2022-10-18T15:49:58.504Z,74.87
2022-10-18T15:52:42.761Z,74.66
2022-10-18T15:55:31.731Z,74.42
2022-10-18T15:58:32.089Z,74.81
2022-10-18T16:01:01.402Z,74.67
2022-10-18T16:03:29.112Z,74.76
2022-10-18T16:06:00.711Z,74.72
2022-10-18T16:08:32.571Z,74.68
2022-10-18T16:11:00.317Z,74.50
2022-10-18T16:13:28.282Z,74.60
2022-10-18T16:15:59.721Z,74.65
2022-10-18T16:18:27.947Z,74.42
2022-10-18T16:20:55.943Z,74.61
2022-10-18T16:23:26.164Z,74.07
2022-10-18T16:25:53.732Z,73.89
2022-10-18T16:28:23.939Z,73.53
2022-10-18T16:30:57.778Z,73.53
2022-10-18T16:33:25.543Z,73.50
2022-10-18T16:35:54.207Z,73.22
2022-10-18T16:38:24.400Z,72.85
2022-10-18T16:40:52.371Z,72.86
2022-10-18T16:43:19.770Z,72.27
2022-10-18T16:45:47.946Z,72.01
2022-10-18T16:48:20.969Z,71.66
2022-10-18T16:50:49.305Z,71.90
2022-10-18T16:53:16.831Z,71.87
2022-10-18T16:55:44.265Z,71.63
2022-10-18T16:58:18.141Z,71.15
2022-10-18T17:00:47.081Z,71.36
2022-10-18T17:03:14.954Z,71.40
2022-10-18T17:05:43.133Z,71.28
2022-10-18T17:08:20.734Z,70.28
2022-10-18T17:10:50.038Z,70.28
2022-10-18T17:13:17.476Z,70.19
2022-10-18T17:15:45.630Z,69.80
2022-10-18T17:18:19.461Z,69.71
2022-10-18T17:20:47.083Z,69.75
2022-10-18T17:23:14.774Z,69.77
2022-10-18T17:25:57.491Z,69.88
2022-10-18T17:28:32.410Z,69.73
2022-10-18T17:30:59.855Z,69.68
2022-10-18T17:33:27.320Z,69.17
2022-10-18T17:35:54.718Z,69.10
2022-10-18T17:38:22.202Z,68.96
2022-10-18T17:40:49.694Z,68.98
2022-10-18T17:43:17.196Z,68.99
2022-10-18T17:45:55.244Z,68.60
2022-10-18T17:48:24.727Z,69.02
2022-10-18T17:50:52.206Z,69.02
2022-10-18T17:53:23.019Z,68.97
2022-10-18T17:55:50.795Z,68.88
2022-10-18T17:58:18.196Z,68.99
2022-10-18T18:00:45.700Z,69.08
2022-10-18T18:03:13.631Z,68.86
2022-10-18T18:05:41.432Z,68.82
2022-10-18T18:08:08.982Z,69.13
2022-10-18T18:10:36.583Z,69.04
2022-10-18T18:13:04.069Z,68.84
2022-10-18T18:15:32.069Z,68.75
2022-10-18T18:17:59.704Z,69.09
2022-10-18T18:20:27.212Z,69.20
2022-10-18T18:22:54.714Z,69.26
2022-10-18T18:25:22.146Z,69.22
2022-10-18T18:27:49.591Z,69.57
2022-10-18T18:30:18.087Z,69.57
2022-10-18T18:32:45.622Z,69.82
2022-10-18T18:35:13.131Z,69.99
2022-10-18T18:37:40.552Z,70.09
2022-10-18T18:40:08.697Z,70.33
2022-10-18T18:42:36.349Z,70.35
2022-10-18T18:45:04.302Z,70.41
2022-10-18T18:47:35.457Z,70.58
2022-10-18T18:50:03.100Z,70.72
2022-10-18T18:52:31.191Z,70.86
2022-10-18T18:54:58.855Z,70.84
2022-10-18T18:57:26.268Z,70.88
2022-10-18T18:59:53.702Z,71.13
2022-10-18T19:02:21.309Z,71.31
2022-10-18T19:04:48.902Z,71.38
2022-10-18T19:07:16.570Z,71.57
2022-10-18T19:09:44.910Z,71.92
2022-10-18T19:12:12.777Z,71.67
2022-10-18T19:14:41.236Z,71.60
2022-10-18T19:17:09.564Z,71.94
2022-10-18T19:19:39.538Z,71.74
2022-10-18T19:22:10.288Z,71.86
2022-10-18T19:24:37.849Z,71.68
2022-10-18T19:27:12.581Z,71.70
2022-10-18T19:29:41.235Z,71.60
2022-10-18T19:32:12.280Z,71.60
2022-10-18T19:34:40.602Z,71.64
2022-10-18T19:37:09.570Z,71.67
2022-10-18T19:39:37.523Z,71.49
2022-10-18T19:42:09.102Z,71.33
2022-10-18T19:44:37.376Z,71.19
2022-10-18T19:47:07.041Z,71.16
2022-10-18T19:49:34.540Z,70.82
2022-10-18T19:52:02.096Z,70.69
2022-10-18T19:54:29.802Z,70.58
2022-10-18T19:56:57.239Z,70.33
2022-10-18T19:59:24.943Z,70.20
2022-10-18T20:01:52.451Z,70.16
2022-10-18T20:04:19.865Z,69.98
2022-10-18T20:06:47.740Z,69.93
2022-10-18T20:09:19.313Z,69.87
2022-10-18T20:11:48.268Z,69.69
2022-10-18T20:14:15.910Z,69.60
2022-10-18T20:16:43.395Z,69.41
2022-10-18T20:19:11.789Z,69.27
2022-10-18T20:21:40.052Z,68.77
2022-10-18T20:24:09.439Z,68.79
2022-10-18T20:26:36.980Z,68.73
2022-10-18T20:29:05.022Z,68.85
2022-10-18T20:31:35.727Z,68.92
2022-10-18T20:34:06.838Z,68.40
2022-10-18T20:36:35.015Z,68.52
2022-10-18T20:39:03.095Z,68.36
2022-10-18T20:41:38.144Z,68.10
2022-10-18T20:44:09.833Z,68.33
2022-10-18T20:46:38.237Z,68.22
2022-10-18T20:49:07.576Z,68.13
2022-10-18T20:51:35.815Z,68.13
2022-10-18T20:56:35.449Z,67.77
2022-10-18T20:59:06.226Z,68.09
2022-10-18T21:01:35.775Z,68.04
2022-10-18T21:04:06.413Z,67.96
2022-10-18T21:06:37.449Z,67.75
2022-10-18T21:09:08.175Z,67.59
2022-10-18T21:11:38.442Z,67.37
2022-10-18T21:14:07.402Z,67.59
2022-10-18T21:16:36.018Z,67.45
2022-10-18T21:19:08.743Z,67.55
2022-10-18T21:21:36.833Z,67.58
2022-10-18T21:24:07.138Z,67.95
2022-10-18T21:26:36.451Z,67.79
2022-10-18T21:29:04.761Z,67.93
2022-10-18T21:31:39.136Z,68.02
2022-10-18T21:34:12.864Z,67.90
2022-10-18T21:36:42.711Z,67.87
2022-10-18T21:39:15.995Z,68.07
2022-10-18T21:41:44.251Z,67.91
2022-10-18T21:44:12.199Z,68.02
2022-10-18T21:46:40.741Z,68.05
2022-10-18T21:49:08.171Z,68.19
2022-10-18T21:51:36.154Z,68.13
2022-10-18T21:54:04.025Z,68.32
2022-10-18T21:56:35.991Z,68.45
2022-10-18T21:59:04.290Z,68.43
2022-10-18T22:01:36.838Z,68.30
2022-10-18T22:04:07.097Z,68.47
2022-10-18T22:09:08.793Z,68.43
2022-10-18T22:11:40.853Z,68.36
2022-10-18T22:14:08.466Z,68.38
2022-10-18T22:16:36.174Z,68.53
2022-10-18T22:19:05.592Z,68.57
2022-10-18T22:21:33.912Z,68.68
2022-10-18T22:24:05.642Z,68.71
2022-10-18T22:26:36.327Z,68.59
2022-10-18T22:29:15.604Z,68.75
2022-10-18T22:31:46.249Z,68.62
2022-10-18T22:34:17.271Z,68.74
2022-10-18T22:36:45.262Z,68.64
2022-10-18T22:39:14.595Z,68.83
2022-10-18T22:41:42.651Z,68.97
2022-10-18T22:44:12.945Z,69.02
2022-10-18T22:46:41.794Z,68.81
2022-10-18T22:49:09.201Z,69.36
2022-10-18T22:51:36.664Z,69.11
2022-10-18T22:54:04.205Z,69.03
2022-10-18T22:56:31.600Z,69.31
2022-10-18T22:58:59.055Z,69.03
2022-10-18T23:01:26.525Z,69.08
2022-10-18T23:03:55.667Z,69.17
2022-10-18T23:06:25.841Z,69.14
2022-10-18T23:08:55.179Z,69.00
2022-10-18T23:11:23.704Z,69.05
2022-10-18T23:13:51.968Z,68.87
2022-10-18T23:16:20.550Z,69.00
2022-10-18T23:18:52.695Z,68.96
2022-10-18T23:21:21.565Z,68.78
2022-10-18T23:23:49.011Z,68.74
2022-10-18T23:26:19.682Z,69.08
2022-10-18T23:28:49.872Z,69.23
2022-10-18T23:31:23.164Z,68.88
2022-10-18T23:33:52.846Z,68.99
2022-10-18T23:36:21.480Z,69.09
2022-10-18T23:38:49.242Z,68.92
2022-10-18T23:41:17.676Z,68.94
2022-10-18T23:43:45.873Z,68.74
2022-10-18T23:46:14.618Z,69.02
2022-10-18T23:48:42.576Z,68.92
2022-10-18T23:51:10.858Z,69.32
2022-10-18T23:53:38.715Z,68.97
2022-10-18T23:56:16.336Z,69.52
2022-10-18T23:58:45.211Z,69.07
